This is the latest recevied weather packets stored in our database for station/object EA2BK-11. If no packets are shown the sender has not sent any weather packets the latest 10 day(s).
| Time | Temp. | Humidity | Pressure | Rain* | Wind** | Luminosity | Snow |
|---|---|---|---|---|---|---|---|
| 1777661619 | 20° C | 52% | 951 hPa | - | - | - | - |
| 1777660714 | 20.56° C | 51% | 951 hPa | - | - | - | - |
| 1777659808 | 21.11° C | 50% | 951 hPa | - | - | - | - |
| 1777658903 | 21.11° C | 50% | 951 hPa | - | - | - | - |
| 1777657998 | 21.11° C | 52% | 951 hPa | - | - | - | - |
| 1777657093 | 21.11° C | 53% | 951 hPa | - | - | - | - |
| 1777656187 | 20.56° C | 54% | 951 hPa | - | - | - | - |
| 1777655282 | 20.56° C | 52% | 951 hPa | - | - | - | - |
| 1777654377 | 21.67° C | 47% | 951 hPa | - | - | - | - |
| 1777653472 | 21.11° C | 46% | 951 hPa | - | - | - | - |
| 1777652567 | 21.11° C | 48% | 950 hPa | - | - | - | - |
| 1777651662 | 21.11° C | 47% | 950 hPa | - | - | - | - |
| 1777650757 | 22.78° C | 43% | 950 hPa | - | - | - | - |
| 1777649851 | 24.44° C | 42% | 950 hPa | - | - | - | - |
| 1777648946 | 24.44° C | 43% | 950 hPa | - | - | - | - |
| 1777648041 | 25° C | 43% | 950 hPa | - | - | - | - |
| 1777647136 | 25° C | 43% | 950 hPa | - | - | - | - |
| 1777646231 | 26.11° C | 41% | 950 hPa | - | - | - | - |
| 1777645326 | 25° C | 43% | 951 hPa | - | - | - | - |
| 1777644420 | 25° C | 44% | 951 hPa | - | - | - | - |
| 1777643515 | 25° C | 44% | 951 hPa | - | - | - | - |
| 1777642610 | 27.22° C | 40% | 951 hPa | - | - | - | - |
| 1777641704 | 30° C | 34% | 951 hPa | - | - | - | - |
| 1777640799 | 31.11° C | 32% | 951 hPa | - | - | - | - |
| 1777639894 | 26.11° C | 41% | 951 hPa | - | - | - | - |
* Rain since midnight (hover to see other rain measurements)
** Current wind speed in m/s (hover to see current wind gust speed)